sensor_id;sensor_type;location;lat;lon;timestamp;temperature;humidity
68248;SHT30;55064;49.636;12.164;2024-03-06T00:02:00;6.93;94.86
68248;SHT30;55064;49.636;12.164;2024-03-06T00:04:26;6.91;95.10
68248;SHT30;55064;49.636;12.164;2024-03-06T00:06:51;6.86;95.18
68248;SHT30;55064;49.636;12.164;2024-03-06T00:09:17;6.86;95.09
68248;SHT30;55064;49.636;12.164;2024-03-06T00:11:44;6.86;95.20
68248;SHT30;55064;49.636;12.164;2024-03-06T00:14:09;6.87;95.09
68248;SHT30;55064;49.636;12.164;2024-03-06T00:16:37;6.90;95.20
68248;SHT30;55064;49.636;12.164;2024-03-06T00:19:03;6.93;94.88
68248;SHT30;55064;49.636;12.164;2024-03-06T00:21:28;6.90;95.02
68248;SHT30;55064;49.636;12.164;2024-03-06T00:23:54;6.81;95.07
68248;SHT30;55064;49.636;12.164;2024-03-06T00:26:21;6.79;95.13
68248;SHT30;55064;49.636;12.164;2024-03-06T00:28:46;6.79;95.08
68248;SHT30;55064;49.636;12.164;2024-03-06T00:31:12;6.75;95.12
68248;SHT30;55064;49.636;12.164;2024-03-06T00:33:37;6.66;95.33
68248;SHT30;55064;49.636;12.164;2024-03-06T00:36:03;6.57;95.47
68248;SHT30;55064;49.636;12.164;2024-03-06T00:38:29;6.59;95.23
68248;SHT30;55064;49.636;12.164;2024-03-06T00:40:54;6.55;95.24
68248;SHT30;55064;49.636;12.164;2024-03-06T00:43:20;6.48;95.52
68248;SHT30;55064;49.636;12.164;2024-03-06T00:45:45;6.42;95.52
68248;SHT30;55064;49.636;12.164;2024-03-06T00:48:11;6.31;95.71
68248;SHT30;55064;49.636;12.164;2024-03-06T00:50:36;6.22;95.98
68248;SHT30;55064;49.636;12.164;2024-03-06T00:53:02;6.08;96.11
68248;SHT30;55064;49.636;12.164;2024-03-06T00:55:29;5.90;96.81
68248;SHT30;55064;49.636;12.164;2024-03-06T00:57:55;5.70;97.39
68248;SHT30;55064;49.636;12.164;2024-03-06T01:00:21;5.55;97.83
68248;SHT30;55064;49.636;12.164;2024-03-06T01:02:47;5.52;98.33
68248;SHT30;55064;49.636;12.164;2024-03-06T01:05:13;5.45;98.54
68248;SHT30;55064;49.636;12.164;2024-03-06T01:07:38;5.43;98.53
68248;SHT30;55064;49.636;12.164;2024-03-06T01:10:08;5.39;98.56
68248;SHT30;55064;49.636;12.164;2024-03-06T01:12:34;5.42;98.53
68248;SHT30;55064;49.636;12.164;2024-03-06T01:14:59;5.48;98.37
68248;SHT30;55064;49.636;12.164;2024-03-06T01:17:25;5.53;98.28
68248;SHT30;55064;49.636;12.164;2024-03-06T01:19:50;5.56;98.27
68248;SHT30;55064;49.636;12.164;2024-03-06T01:22:16;5.51;97.99
68248;SHT30;55064;49.636;12.164;2024-03-06T01:24:41;5.51;98.05
68248;SHT30;55064;49.636;12.164;2024-03-06T01:27:07;5.55;97.90
68248;SHT30;55064;49.636;12.164;2024-03-06T01:29:33;5.59;97.78
68248;SHT30;55064;49.636;12.164;2024-03-06T01:31:59;5.58;97.62
68248;SHT30;55064;49.636;12.164;2024-03-06T01:34:24;5.59;97.89
68248;SHT30;55064;49.636;12.164;2024-03-06T01:36:51;5.60;97.87
68248;SHT30;55064;49.636;12.164;2024-03-06T01:39:16;5.59;97.92
68248;SHT30;55064;49.636;12.164;2024-03-06T01:41:49;5.62;97.84
68248;SHT30;55064;49.636;12.164;2024-03-06T01:44:15;5.63;97.86
68248;SHT30;55064;49.636;12.164;2024-03-06T01:46:41;5.67;97.63
68248;SHT30;55064;49.636;12.164;2024-03-06T01:49:07;5.71;97.18
68248;SHT30;55064;49.636;12.164;2024-03-06T01:51:33;5.71;97.14
68248;SHT30;55064;49.636;12.164;2024-03-06T01:54:00;5.70;97.44
68248;SHT30;55064;49.636;12.164;2024-03-06T01:56:27;5.71;97.32
68248;SHT30;55064;49.636;12.164;2024-03-06T01:58:53;5.70;96.80
68248;SHT30;55064;49.636;12.164;2024-03-06T02:01:19;5.67;96.77
68248;SHT30;55064;49.636;12.164;2024-03-06T02:03:47;5.60;96.98
68248;SHT30;55064;49.636;12.164;2024-03-06T02:06:14;5.58;97.23
68248;SHT30;55064;49.636;12.164;2024-03-06T02:08:40;5.66;97.26
68248;SHT30;55064;49.636;12.164;2024-03-06T02:11:06;5.62;97.37
68248;SHT30;55064;49.636;12.164;2024-03-06T02:13:33;5.62;97.35
68248;SHT30;55064;49.636;12.164;2024-03-06T02:15:58;5.56;97.73
68248;SHT30;55064;49.636;12.164;2024-03-06T02:18:24;5.55;97.83
68248;SHT30;55064;49.636;12.164;2024-03-06T02:20:50;5.58;97.82
68248;SHT30;55064;49.636;12.164;2024-03-06T02:23:16;5.58;97.75
68248;SHT30;55064;49.636;12.164;2024-03-06T02:25:44;5.59;97.80
68248;SHT30;55064;49.636;12.164;2024-03-06T02:28:11;5.60;97.52
68248;SHT30;55064;49.636;12.164;2024-03-06T02:30:36;5.60;97.48
68248;SHT30;55064;49.636;12.164;2024-03-06T02:33:02;5.55;97.59
68248;SHT30;55064;49.636;12.164;2024-03-06T02:35:37;5.48;97.49
68248;SHT30;55064;49.636;12.164;2024-03-06T02:38:05;5.48;97.62
68248;SHT30;55064;49.636;12.164;2024-03-06T02:40:31;5.46;97.68
68248;SHT30;55064;49.636;12.164;2024-03-06T02:42:56;5.46;97.66
68248;SHT30;55064;49.636;12.164;2024-03-06T02:45:22;5.45;97.60
68248;SHT30;55064;49.636;12.164;2024-03-06T02:47:47;5.41;97.63
68248;SHT30;55064;49.636;12.164;2024-03-06T02:50:12;5.36;97.74
68248;SHT30;55064;49.636;12.164;2024-03-06T02:52:39;5.34;97.79
68248;SHT30;55064;49.636;12.164;2024-03-06T02:55:05;5.34;97.70
68248;SHT30;55064;49.636;12.164;2024-03-06T02:57:30;5.32;97.65
68248;SHT30;55064;49.636;12.164;2024-03-06T02:59:56;5.31;97.46
68248;SHT30;55064;49.636;12.164;2024-03-06T03:02:22;5.25;97.54
68248;SHT30;55064;49.636;12.164;2024-03-06T03:04:49;5.21;97.45
68248;SHT30;55064;49.636;12.164;2024-03-06T03:07:14;5.20;97.61
68248;SHT30;55064;49.636;12.164;2024-03-06T03:09:39;5.20;97.49
68248;SHT30;55064;49.636;12.164;2024-03-06T03:12:05;5.21;97.48
68248;SHT30;55064;49.636;12.164;2024-03-06T03:14:31;5.15;97.53
68248;SHT30;55064;49.636;12.164;2024-03-06T03:16:58;5.17;97.54
68248;SHT30;55064;49.636;12.164;2024-03-06T03:19:24;5.17;97.41
68248;SHT30;55064;49.636;12.164;2024-03-06T03:21:49;5.15;97.46
68248;SHT30;55064;49.636;12.164;2024-03-06T03:24:14;5.15;97.35
68248;SHT30;55064;49.636;12.164;2024-03-06T03:26:40;5.11;97.32
68248;SHT30;55064;49.636;12.164;2024-03-06T03:29:07;5.10;97.40
68248;SHT30;55064;49.636;12.164;2024-03-06T03:31:32;5.08;97.34
68248;SHT30;55064;49.636;12.164;2024-03-06T03:33:58;5.07;97.22
68248;SHT30;55064;49.636;12.164;2024-03-06T03:36:23;5.03;97.23
68248;SHT30;55064;49.636;12.164;2024-03-06T03:38:50;5.04;97.51
68248;SHT30;55064;49.636;12.164;2024-03-06T03:41:15;5.05;97.53
68248;SHT30;55064;49.636;12.164;2024-03-06T03:43:42;5.05;97.55
68248;SHT30;55064;49.636;12.164;2024-03-06T03:46:08;5.03;97.76
68248;SHT30;55064;49.636;12.164;2024-03-06T03:48:34;5.00;98.01
68248;SHT30;55064;49.636;12.164;2024-03-06T03:51:02;5.00;98.17
68248;SHT30;55064;49.636;12.164;2024-03-06T03:53:32;4.95;98.17
68248;SHT30;55064;49.636;12.164;2024-03-06T03:55:59;4.90;98.58
68248;SHT30;55064;49.636;12.164;2024-03-06T03:58:24;4.84;98.91
68248;SHT30;55064;49.636;12.164;2024-03-06T04:00:49;4.81;99.17
68248;SHT30;55064;49.636;12.164;2024-03-06T04:03:21;4.86;98.95
68248;SHT30;55064;49.636;12.164;2024-03-06T04:05:47;4.81;98.79
68248;SHT30;55064;49.636;12.164;2024-03-06T04:08:13;4.79;98.79
68248;SHT30;55064;49.636;12.164;2024-03-06T04:10:38;4.77;98.94
68248;SHT30;55064;49.636;12.164;2024-03-06T04:13:04;4.67;99.15
68248;SHT30;55064;49.636;12.164;2024-03-06T04:15:29;4.67;99.11
68248;SHT30;55064;49.636;12.164;2024-03-06T04:17:56;4.66;99.11
68248;SHT30;55064;49.636;12.164;2024-03-06T04:20:21;4.65;99.25
68248;SHT30;55064;49.636;12.164;2024-03-06T04:22:47;4.65;99.25
68248;SHT30;55064;49.636;12.164;2024-03-06T04:25:13;4.60;99.46
68248;SHT30;55064;49.636;12.164;2024-03-06T04:27:38;4.60;99.40
68248;SHT30;55064;49.636;12.164;2024-03-06T04:30:04;4.62;99.49
68248;SHT30;55064;49.636;12.164;2024-03-06T04:32:30;4.59;99.32
68248;SHT30;55064;49.636;12.164;2024-03-06T04:34:55;4.59;99.39
68248;SHT30;55064;49.636;12.164;2024-03-06T04:37:21;4.56;99.37
68248;SHT30;55064;49.636;12.164;2024-03-06T04:39:47;4.62;99.36
68248;SHT30;55064;49.636;12.164;2024-03-06T04:42:13;4.60;99.34
68248;SHT30;55064;49.636;12.164;2024-03-06T04:44:38;4.60;99.49
68248;SHT30;55064;49.636;12.164;2024-03-06T04:47:03;4.59;99.25
68248;SHT30;55064;49.636;12.164;2024-03-06T04:49:32;4.62;99.34
68248;SHT30;55064;49.636;12.164;2024-03-06T04:51:59;4.63;99.34
68248;SHT30;55064;49.636;12.164;2024-03-06T04:54:24;4.60;99.30
68248;SHT30;55064;49.636;12.164;2024-03-06T04:56:49;4.66;99.30
68248;SHT30;55064;49.636;12.164;2024-03-06T04:59:15;4.66;99.24
68248;SHT30;55064;49.636;12.164;2024-03-06T05:01:40;4.69;99.01
68248;SHT30;55064;49.636;12.164;2024-03-06T05:04:06;4.69;99.06
68248;SHT30;55064;49.636;12.164;2024-03-06T05:06:32;4.70;99.20
68248;SHT30;55064;49.636;12.164;2024-03-06T05:08:57;4.67;99.25
68248;SHT30;55064;49.636;12.164;2024-03-06T05:11:22;4.72;99.05
68248;SHT30;55064;49.636;12.164;2024-03-06T05:13:48;4.73;99.04
68248;SHT30;55064;49.636;12.164;2024-03-06T05:16:14;4.76;99.01
68248;SHT30;55064;49.636;12.164;2024-03-06T05:18:39;4.84;99.02
68248;SHT30;55064;49.636;12.164;2024-03-06T05:21:05;4.88;98.96
68248;SHT30;55064;49.636;12.164;2024-03-06T05:23:30;4.88;98.92
68248;SHT30;55064;49.636;12.164;2024-03-06T05:25:55;4.90;98.88
68248;SHT30;55064;49.636;12.164;2024-03-06T05:28:21;4.90;98.90
68248;SHT30;55064;49.636;12.164;2024-03-06T05:30:46;4.94;98.93
68248;SHT30;55064;49.636;12.164;2024-03-06T05:33:12;4.97;98.78
68248;SHT30;55064;49.636;12.164;2024-03-06T05:35:38;4.93;98.70
68248;SHT30;55064;49.636;12.164;2024-03-06T05:38:03;4.91;98.92
68248;SHT30;55064;49.636;12.164;2024-03-06T05:40:28;4.87;98.67
68248;SHT30;55064;49.636;12.164;2024-03-06T05:42:55;4.90;98.62
68248;SHT30;55064;49.636;12.164;2024-03-06T05:45:21;4.84;98.64
68248;SHT30;55064;49.636;12.164;2024-03-06T05:47:46;4.83;98.55
68248;SHT30;55064;49.636;12.164;2024-03-06T05:50:13;4.83;98.57
68248;SHT30;55064;49.636;12.164;2024-03-06T05:52:38;4.81;98.47
68248;SHT30;55064;49.636;12.164;2024-03-06T05:55:04;4.84;98.55
68248;SHT30;55064;49.636;12.164;2024-03-06T05:57:31;4.87;98.64
68248;SHT30;55064;49.636;12.164;2024-03-06T05:59:57;4.87;98.66
68248;SHT30;55064;49.636;12.164;2024-03-06T06:02:22;4.88;98.67
68248;SHT30;55064;49.636;12.164;2024-03-06T06:04:47;4.87;98.78
68248;SHT30;55064;49.636;12.164;2024-03-06T06:07:13;4.88;98.74
68248;SHT30;55064;49.636;12.164;2024-03-06T06:09:38;4.93;99.01
68248;SHT30;55064;49.636;12.164;2024-03-06T06:12:04;4.97;98.89
68248;SHT30;55064;49.636;12.164;2024-03-06T06:14:29;5.03;98.81
68248;SHT30;55064;49.636;12.164;2024-03-06T06:16:56;5.05;98.62
68248;SHT30;55064;49.636;12.164;2024-03-06T06:19:21;5.07;98.60
68248;SHT30;55064;49.636;12.164;2024-03-06T06:21:47;5.13;98.55
68248;SHT30;55064;49.636;12.164;2024-03-06T06:24:13;5.15;98.55
68248;SHT30;55064;49.636;12.164;2024-03-06T06:26:39;5.18;98.51
68248;SHT30;55064;49.636;12.164;2024-03-06T06:29:05;5.24;98.35
68248;SHT30;55064;49.636;12.164;2024-03-06T06:31:30;5.30;98.44
68248;SHT30;55064;49.636;12.164;2024-03-06T06:33:56;5.32;98.23
68248;SHT30;55064;49.636;12.164;2024-03-06T06:36:23;5.41;98.15
68248;SHT30;55064;49.636;12.164;2024-03-06T06:38:48;5.42;98.10
68248;SHT30;55064;49.636;12.164;2024-03-06T06:41:15;5.46;98.13
68248;SHT30;55064;49.636;12.164;2024-03-06T06:43:41;5.53;98.17
68248;SHT30;55064;49.636;12.164;2024-03-06T06:46:07;5.58;98.20
68248;SHT30;55064;49.636;12.164;2024-03-06T06:48:32;5.56;98.11
68248;SHT30;55064;49.636;12.164;2024-03-06T06:51:01;5.62;98.13
68248;SHT30;55064;49.636;12.164;2024-03-06T06:53:30;5.65;97.88
68248;SHT30;55064;49.636;12.164;2024-03-06T06:55:57;5.71;97.83
68248;SHT30;55064;49.636;12.164;2024-03-06T06:58:22;5.73;97.72
68248;SHT30;55064;49.636;12.164;2024-03-06T07:00:48;5.79;97.70
68248;SHT30;55064;49.636;12.164;2024-03-06T07:03:13;5.86;97.65
68248;SHT30;55064;49.636;12.164;2024-03-06T07:05:38;5.87;97.52
68248;SHT30;55064;49.636;12.164;2024-03-06T07:08:04;5.87;97.33
68248;SHT30;55064;49.636;12.164;2024-03-06T07:10:30;5.96;97.54
68248;SHT30;55064;49.636;12.164;2024-03-06T07:12:55;6.01;97.55
68248;SHT30;55064;49.636;12.164;2024-03-06T07:15:20;6.15;97.26
68248;SHT30;55064;49.636;12.164;2024-03-06T07:17:46;6.15;96.92
68248;SHT30;55064;49.636;12.164;2024-03-06T07:20:12;6.20;96.84
68248;SHT30;55064;49.636;12.164;2024-03-06T07:22:37;6.25;97.02
68248;SHT30;55064;49.636;12.164;2024-03-06T07:25:03;6.35;96.36
68248;SHT30;55064;49.636;12.164;2024-03-06T07:27:29;6.46;96.46
68248;SHT30;55064;49.636;12.164;2024-03-06T07:29:54;6.48;96.24
68248;SHT30;55064;49.636;12.164;2024-03-06T07:32:19;6.52;96.01
68248;SHT30;55064;49.636;12.164;2024-03-06T07:34:45;6.56;96.06
68248;SHT30;55064;49.636;12.164;2024-03-06T07:37:10;6.61;95.90
68248;SHT30;55064;49.636;12.164;2024-03-06T07:39:36;6.69;95.96
68248;SHT30;55064;49.636;12.164;2024-03-06T07:42:01;6.75;95.77
68248;SHT30;55064;49.636;12.164;2024-03-06T07:44:27;6.77;95.62
68248;SHT30;55064;49.636;12.164;2024-03-06T07:46:53;6.84;95.37
68248;SHT30;55064;49.636;12.164;2024-03-06T07:49:19;6.89;95.10
68248;SHT30;55064;49.636;12.164;2024-03-06T07:51:45;6.93;95.19
68248;SHT30;55064;49.636;12.164;2024-03-06T07:54:10;6.93;94.75
68248;SHT30;55064;49.636;12.164;2024-03-06T07:56:35;7.01;94.63
68248;SHT30;55064;49.636;12.164;2024-03-06T07:59:01;7.08;94.41
68248;SHT30;55064;49.636;12.164;2024-03-06T08:01:26;7.03;94.33
68248;SHT30;55064;49.636;12.164;2024-03-06T08:03:54;7.10;94.10
68248;SHT30;55064;49.636;12.164;2024-03-06T08:06:20;7.19;94.27
68248;SHT30;55064;49.636;12.164;2024-03-06T08:08:45;7.24;93.82
68248;SHT30;55064;49.636;12.164;2024-03-06T08:11:11;7.32;93.26
68248;SHT30;55064;49.636;12.164;2024-03-06T08:13:37;7.35;93.29
68248;SHT30;55064;49.636;12.164;2024-03-06T08:16:04;7.44;93.19
68248;SHT30;55064;49.636;12.164;2024-03-06T08:18:30;7.44;93.30
68248;SHT30;55064;49.636;12.164;2024-03-06T08:20:56;7.46;92.42
68248;SHT30;55064;49.636;12.164;2024-03-06T08:23:21;7.48;90.62
68248;SHT30;55064;49.636;12.164;2024-03-06T08:25:47;7.56;90.03
68248;SHT30;55064;49.636;12.164;2024-03-06T08:28:12;7.59;89.77
68248;SHT30;55064;49.636;12.164;2024-03-06T08:30:37;7.58;89.22
68248;SHT30;55064;49.636;12.164;2024-03-06T08:33:03;7.58;88.23
68248;SHT30;55064;49.636;12.164;2024-03-06T08:35:29;7.49;87.95
68248;SHT30;55064;49.636;12.164;2024-03-06T08:37:55;7.44;87.93
68248;SHT30;55064;49.636;12.164;2024-03-06T08:40:20;7.48;89.12
68248;SHT30;55064;49.636;12.164;2024-03-06T08:42:49;7.46;87.94
68248;SHT30;55064;49.636;12.164;2024-03-06T08:45:15;7.46;88.38
68248;SHT30;55064;49.636;12.164;2024-03-06T08:47:41;7.51;89.08
68248;SHT30;55064;49.636;12.164;2024-03-06T08:50:07;7.49;87.24
68248;SHT30;55064;49.636;12.164;2024-03-06T08:52:33;7.55;87.66
68248;SHT30;55064;49.636;12.164;2024-03-06T08:55:00;7.67;88.27
68248;SHT30;55064;49.636;12.164;2024-03-06T08:57:25;7.66;87.19
68248;SHT30;55064;49.636;12.164;2024-03-06T08:59:56;7.74;87.64
68248;SHT30;55064;49.636;12.164;2024-03-06T09:02:22;7.77;86.23
68248;SHT30;55064;49.636;12.164;2024-03-06T09:04:47;7.82;86.70
68248;SHT30;55064;49.636;12.164;2024-03-06T09:07:13;7.82;86.70
68248;SHT30;55064;49.636;12.164;2024-03-06T09:09:39;7.98;86.57
68248;SHT30;55064;49.636;12.164;2024-03-06T09:12:05;8.03;85.22
68248;SHT30;55064;49.636;12.164;2024-03-06T09:14:34;8.17;85.14
68248;SHT30;55064;49.636;12.164;2024-03-06T09:17:00;8.18;84.34
68248;SHT30;55064;49.636;12.164;2024-03-06T09:19:26;8.24;83.71
68248;SHT30;55064;49.636;12.164;2024-03-06T09:21:51;8.37;84.68
68248;SHT30;55064;49.636;12.164;2024-03-06T09:24:16;8.34;83.05
68248;SHT30;55064;49.636;12.164;2024-03-06T09:26:43;8.31;82.69
68248;SHT30;55064;49.636;12.164;2024-03-06T09:29:08;8.50;83.06
68248;SHT30;55064;49.636;12.164;2024-03-06T09:31:35;8.63;83.16
68248;SHT30;55064;49.636;12.164;2024-03-06T09:34:02;8.50;80.60
68248;SHT30;55064;49.636;12.164;2024-03-06T09:36:27;8.72;81.08
68248;SHT30;55064;49.636;12.164;2024-03-06T09:38:52;8.59;80.90
68248;SHT30;55064;49.636;12.164;2024-03-06T09:41:18;8.67;81.53
68248;SHT30;55064;49.636;12.164;2024-03-06T09:43:44;8.84;80.78
68248;SHT30;55064;49.636;12.164;2024-03-06T09:46:10;8.77;78.31
68248;SHT30;55064;49.636;12.164;2024-03-06T09:48:35;9.01;78.47
68248;SHT30;55064;49.636;12.164;2024-03-06T09:51:02;8.90;78.05
68248;SHT30;55064;49.636;12.164;2024-03-06T09:53:28;8.90;77.51
68248;SHT30;55064;49.636;12.164;2024-03-06T09:55:55;9.13;77.43
68248;SHT30;55064;49.636;12.164;2024-03-06T09:58:21;9.18;76.49
68248;SHT30;55064;49.636;12.164;2024-03-06T10:00:48;9.20;76.90
68248;SHT30;55064;49.636;12.164;2024-03-06T10:03:13;9.32;75.84
68248;SHT30;55064;49.636;12.164;2024-03-06T10:05:39;9.35;75.45
68248;SHT30;55064;49.636;12.164;2024-03-06T10:08:05;9.27;76.46
68248;SHT30;55064;49.636;12.164;2024-03-06T10:10:30;9.07;74.44
68248;SHT30;55064;49.636;12.164;2024-03-06T10:12:56;9.04;74.95
68248;SHT30;55064;49.636;12.164;2024-03-06T10:15:22;9.07;75.20
68248;SHT30;55064;49.636;12.164;2024-03-06T10:17:48;9.17;75.34
68248;SHT30;55064;49.636;12.164;2024-03-06T10:20:21;8.91;73.95
68248;SHT30;55064;49.636;12.164;2024-03-06T10:22:53;8.94;74.65
68248;SHT30;55064;49.636;12.164;2024-03-06T10:25:22;9.10;74.57
68248;SHT30;55064;49.636;12.164;2024-03-06T10:28:07;9.04;74.55
68248;SHT30;55064;49.636;12.164;2024-03-06T10:30:33;9.01;75.08
68248;SHT30;55064;49.636;12.164;2024-03-06T10:33:01;9.15;75.88
68248;SHT30;55064;49.636;12.164;2024-03-06T10:35:28;9.18;75.04
68248;SHT30;55064;49.636;12.164;2024-03-06T10:37:54;9.07;74.63
68248;SHT30;55064;49.636;12.164;2024-03-06T10:40:20;8.99;74.15
68248;SHT30;55064;49.636;12.164;2024-03-06T10:42:46;9.10;74.39
68248;SHT30;55064;49.636;12.164;2024-03-06T10:45:13;9.22;74.51
68248;SHT30;55064;49.636;12.164;2024-03-06T10:47:40;9.42;74.79
68248;SHT30;55064;49.636;12.164;2024-03-06T10:50:06;9.35;74.28
68248;SHT30;55064;49.636;12.164;2024-03-06T10:52:36;9.22;73.09
68248;SHT30;55064;49.636;12.164;2024-03-06T10:55:03;9.22;73.49
68248;SHT30;55064;49.636;12.164;2024-03-06T10:57:29;9.21;72.78
68248;SHT30;55064;49.636;12.164;2024-03-06T10:59:56;9.58;73.13
68248;SHT30;55064;49.636;12.164;2024-03-06T11:02:24;10.06;72.71
68248;SHT30;55064;49.636;12.164;2024-03-06T11:04:53;9.93;72.41
68248;SHT30;55064;49.636;12.164;2024-03-06T11:07:18;9.58;72.51
68248;SHT30;55064;49.636;12.164;2024-03-06T11:09:44;10.18;72.78
68248;SHT30;55064;49.636;12.164;2024-03-06T11:12:09;9.97;72.52
68248;SHT30;55064;49.636;12.164;2024-03-06T11:14:39;9.86;72.07
68248;SHT30;55064;49.636;12.164;2024-03-06T11:17:08;9.91;73.11
68248;SHT30;55064;49.636;12.164;2024-03-06T11:28:16;10.11;71.73
68248;SHT30;55064;49.636;12.164;2024-03-06T11:30:45;10.22;71.00
68248;SHT30;55064;49.636;12.164;2024-03-06T11:33:18;10.14;70.79
68248;SHT30;55064;49.636;12.164;2024-03-06T11:36:18;9.98;70.15
68248;SHT30;55064;49.636;12.164;2024-03-06T11:39:07;10.11;72.17
68248;SHT30;55064;49.636;12.164;2024-03-06T11:41:48;10.10;69.90
68248;SHT30;55064;49.636;12.164;2024-03-06T11:44:21;10.14;71.35
68248;SHT30;55064;49.636;12.164;2024-03-06T11:47:00;10.13;71.79
68248;SHT30;55064;49.636;12.164;2024-03-06T11:49:27;10.21;71.12
68248;SHT30;55064;49.636;12.164;2024-03-06T11:52:00;10.20;71.55
68248;SHT30;55064;49.636;12.164;2024-03-06T11:54:26;10.06;70.82
68248;SHT30;55064;49.636;12.164;2024-03-06T11:56:59;9.86;70.15
68248;SHT30;55064;49.636;12.164;2024-03-06T11:59:35;9.96;70.97
68248;SHT30;55064;49.636;12.164;2024-03-06T12:02:04;9.97;70.58
68248;SHT30;55064;49.636;12.164;2024-03-06T12:04:31;9.94;69.85
68248;SHT30;55064;49.636;12.164;2024-03-06T12:06:58;9.93;70.28
68248;SHT30;55064;49.636;12.164;2024-03-06T12:09:31;10.07;70.86
68248;SHT30;55064;49.636;12.164;2024-03-06T12:11:57;10.08;70.92
68248;SHT30;55064;49.636;12.164;2024-03-06T12:14:23;10.07;70.83
68248;SHT30;55064;49.636;12.164;2024-03-06T12:16:58;10.08;71.42
68248;SHT30;55064;49.636;12.164;2024-03-06T12:19:28;9.98;71.40
68248;SHT30;55064;49.636;12.164;2024-03-06T12:21:53;10.07;71.73
68248;SHT30;55064;49.636;12.164;2024-03-06T12:24:19;10.13;70.14
68248;SHT30;55064;49.636;12.164;2024-03-06T12:26:44;10.28;70.49
68248;SHT30;55064;49.636;12.164;2024-03-06T12:29:11;10.35;70.59
68248;SHT30;55064;49.636;12.164;2024-03-06T12:31:38;10.42;70.39
68248;SHT30;55064;49.636;12.164;2024-03-06T12:34:04;10.31;70.52
68248;SHT30;55064;49.636;12.164;2024-03-06T12:36:32;10.08;70.50
68248;SHT30;55064;49.636;12.164;2024-03-06T12:39:03;10.08;70.70
68248;SHT30;55064;49.636;12.164;2024-03-06T12:41:28;10.00;71.68
68248;SHT30;55064;49.636;12.164;2024-03-06T12:43:55;9.93;71.73
68248;SHT30;55064;49.636;12.164;2024-03-06T12:46:21;10.04;72.42
68248;SHT30;55064;49.636;12.164;2024-03-06T12:48:47;10.03;71.28
68248;SHT30;55064;49.636;12.164;2024-03-06T12:51:12;10.07;70.85
68248;SHT30;55064;49.636;12.164;2024-03-06T12:53:37;9.98;69.71
68248;SHT30;55064;49.636;12.164;2024-03-06T12:56:03;9.91;69.88
68248;SHT30;55064;49.636;12.164;2024-03-06T12:58:29;9.94;69.57
68248;SHT30;55064;49.636;12.164;2024-03-06T13:00:56;10.01;69.67
68248;SHT30;55064;49.636;12.164;2024-03-06T13:03:22;10.04;70.67
68248;SHT30;55064;49.636;12.164;2024-03-06T13:05:48;10.21;70.56
68248;SHT30;55064;49.636;12.164;2024-03-06T13:08:13;10.20;69.67
68248;SHT30;55064;49.636;12.164;2024-03-06T13:10:40;10.11;69.81
68248;SHT30;55064;49.636;12.164;2024-03-06T13:13:05;10.06;70.03
68248;SHT30;55064;49.636;12.164;2024-03-06T13:15:32;10.10;69.94
68248;SHT30;55064;49.636;12.164;2024-03-06T13:17:59;10.00;69.44
68248;SHT30;55064;49.636;12.164;2024-03-06T13:20:24;10.11;70.49
68248;SHT30;55064;49.636;12.164;2024-03-06T13:22:50;10.17;70.92
68248;SHT30;55064;49.636;12.164;2024-03-06T13:25:15;10.21;70.47
68248;SHT30;55064;49.636;12.164;2024-03-06T13:27:41;10.10;70.81
68248;SHT30;55064;49.636;12.164;2024-03-06T13:30:07;9.98;71.69
68248;SHT30;55064;49.636;12.164;2024-03-06T13:32:33;9.91;71.87
68248;SHT30;55064;49.636;12.164;2024-03-06T13:34:58;9.96;72.81
68248;SHT30;55064;49.636;12.164;2024-03-06T13:37:24;10.01;72.40
68248;SHT30;55064;49.636;12.164;2024-03-06T13:39:49;9.86;70.83
68248;SHT30;55064;49.636;12.164;2024-03-06T13:42:15;9.98;70.88
68248;SHT30;55064;49.636;12.164;2024-03-06T13:44:40;10.06;71.09
68248;SHT30;55064;49.636;12.164;2024-03-06T13:47:06;10.17;70.76
68248;SHT30;55064;49.636;12.164;2024-03-06T13:49:40;10.20;70.91
68248;SHT30;55064;49.636;12.164;2024-03-06T13:52:07;10.42;70.19
68248;SHT30;55064;49.636;12.164;2024-03-06T13:54:38;10.30;69.46
68248;SHT30;55064;49.636;12.164;2024-03-06T13:57:05;10.22;70.91
68248;SHT30;55064;49.636;12.164;2024-03-06T13:59:31;10.15;71.89
68248;SHT30;55064;49.636;12.164;2024-03-06T14:01:56;10.10;72.91
68248;SHT30;55064;49.636;12.164;2024-03-06T14:04:22;10.10;73.33
68248;SHT30;55064;49.636;12.164;2024-03-06T14:06:49;10.14;73.02
68248;SHT30;55064;49.636;12.164;2024-03-06T14:09:14;10.21;73.41
68248;SHT30;55064;49.636;12.164;2024-03-06T14:11:40;10.06;72.62
68248;SHT30;55064;49.636;12.164;2024-03-06T14:14:05;9.89;72.47
68248;SHT30;55064;49.636;12.164;2024-03-06T14:16:31;9.87;72.42
68248;SHT30;55064;49.636;12.164;2024-03-06T14:18:56;9.96;72.80
68248;SHT30;55064;49.636;12.164;2024-03-06T14:21:22;10.08;73.23
68248;SHT30;55064;49.636;12.164;2024-03-06T14:23:47;10.20;73.02
68248;SHT30;55064;49.636;12.164;2024-03-06T14:26:13;10.44;72.56
68248;SHT30;55064;49.636;12.164;2024-03-06T14:28:38;10.40;70.12
68248;SHT30;55064;49.636;12.164;2024-03-06T14:31:05;10.31;70.14
68248;SHT30;55064;49.636;12.164;2024-03-06T14:33:30;10.35;71.67
68248;SHT30;55064;49.636;12.164;2024-03-06T14:35:55;10.34;70.59
68248;SHT30;55064;49.636;12.164;2024-03-06T14:38:21;10.15;71.07
68248;SHT30;55064;49.636;12.164;2024-03-06T14:40:47;10.04;71.51
68248;SHT30;55064;49.636;12.164;2024-03-06T14:43:12;10.04;71.13
68248;SHT30;55064;49.636;12.164;2024-03-06T14:45:38;9.97;71.46
68248;SHT30;55064;49.636;12.164;2024-03-06T14:48:07;9.91;70.70
68248;SHT30;55064;49.636;12.164;2024-03-06T14:50:33;9.75;69.74
68248;SHT30;55064;49.636;12.164;2024-03-06T14:52:58;9.70;70.53
68248;SHT30;55064;49.636;12.164;2024-03-06T14:55:24;9.72;70.38
68248;SHT30;55064;49.636;12.164;2024-03-06T14:57:49;9.86;71.28
68248;SHT30;55064;49.636;12.164;2024-03-06T15:00:15;9.96;69.79
68248;SHT30;55064;49.636;12.164;2024-03-06T15:02:42;10.03;70.05
68248;SHT30;55064;49.636;12.164;2024-03-06T15:05:08;10.06;69.27
68248;SHT30;55064;49.636;12.164;2024-03-06T15:07:37;9.94;69.33
68248;SHT30;55064;49.636;12.164;2024-03-06T15:10:04;9.94;70.03
68248;SHT30;55064;49.636;12.164;2024-03-06T15:12:30;10.00;69.66
68248;SHT30;55064;49.636;12.164;2024-03-06T15:14:55;10.00;69.53
68248;SHT30;55064;49.636;12.164;2024-03-06T15:17:23;10.03;69.39
68248;SHT30;55064;49.636;12.164;2024-03-06T15:19:51;10.08;69.02
68248;SHT30;55064;49.636;12.164;2024-03-06T15:22:16;10.07;68.16
68248;SHT30;55064;49.636;12.164;2024-03-06T15:24:41;10.08;69.04
68248;SHT30;55064;49.636;12.164;2024-03-06T15:27:09;10.10;68.34
68248;SHT30;55064;49.636;12.164;2024-03-06T15:29:35;10.07;67.75
68248;SHT30;55064;49.636;12.164;2024-03-06T15:32:00;10.03;68.72